N160MS KACV-KAPC
Flight info
| Callsign | N160MS |
|---|---|
| Flight time | 0h 43m |
| Altitude | 21000 |
| Route | HOCUT5 FOT |
| Aircraft | P180/L-SBDFGM3RWXY/LB1 |
Departure
| Time | 2026-04-26 04:29 |
|---|---|
| Airport | California Redwood Coast-Humboldt County Airport (KACV) |
Arrival
| Time | 2026-04-26 05:13 |
|---|---|
| Airport | Napa County Airport (KAPC) |
| Time | Latitude | Longitude | Altitude | Speed | Heading |
|---|---|---|---|---|---|
| 2026-04-26 04:09 | 40.97282 | -124.10708 | 212 ft | 0 kts | 331° |
| 2026-04-26 04:26 | 40.97301 | -124.10714 | 214 ft | 4 kts | 14° |
| 2026-04-26 04:26 | 40.97307 | -124.10674 | 213 ft | 7 kts | 127° |
| 2026-04-26 04:26 | 40.97277 | -124.10636 | 214 ft | 5 kts | 97° |
| 2026-04-26 04:26 | 40.97286 | -124.10598 | 216 ft | 5 kts | 95° |
| 2026-04-26 04:27 | 40.97264 | -124.10575 | 216 ft | 6 kts | 156° |
| 2026-04-26 04:27 | 40.97207 | -124.10538 | 217 ft | 12 kts | 152° |
| 2026-04-26 04:27 | 40.97118 | -124.10477 | 219 ft | 17 kts | 153° |
| 2026-04-26 04:27 | 40.97033 | -124.10416 | 221 ft | 0 kts | 121° |
| 2026-04-26 04:28 | 40.97031 | -124.10401 | 221 ft | 4 kts | 79° |
| 2026-04-26 04:28 | 40.97048 | -124.10345 | 221 ft | 10 kts | 61° |
| 2026-04-26 04:28 | 40.97090 | -124.10340 | 220 ft | 0 kts | 334° |
| 2026-04-26 04:29 | 40.97152 | -124.10380 | 218 ft | 39 kts | 333° |
| 2026-04-26 04:29 | 40.97622 | -124.10699 | 209 ft | 107 kts | 333° |
| 2026-04-26 04:29 | 40.98106 | -124.11018 | 345 ft | 123 kts | 333° |
| 2026-04-26 04:29 | 40.99100 | -124.11764 | 1167 ft | 124 kts | 314° |
| 2026-04-26 04:30 | 40.99367 | -124.12858 | 1683 ft | 134 kts | 263° |
| 2026-04-26 04:30 | 40.99112 | -124.13645 | 1990 ft | 151 kts | 238° |
| 2026-04-26 04:30 | 40.98446 | -124.14809 | 2648 ft | 163 kts | 235° |
| 2026-04-26 04:30 | 40.97895 | -124.16194 | 3250 ft | 174 kts | 257° |
| 2026-04-26 04:31 | 40.97772 | -124.17750 | 4072 ft | 173 kts | 275° |
| 2026-04-26 04:31 | 40.97803 | -124.19374 | 4768 ft | 180 kts | 274° |
| 2026-04-26 04:31 | 40.97755 | -124.21059 | 5456 ft | 186 kts | 271° |
| 2026-04-26 04:31 | 40.97673 | -124.22789 | 6163 ft | 189 kts | 270° |
| 2026-04-26 04:32 | 40.97586 | -124.24538 | 6801 ft | 194 kts | 270° |
| 2026-04-26 04:32 | 40.97514 | -124.26428 | 7008 ft | 217 kts | 271° |
| 2026-04-26 04:32 | 40.97437 | -124.28436 | 7535 ft | 219 kts | 270° |
| 2026-04-26 04:32 | 40.97244 | -124.30434 | 8129 ft | 223 kts | 255° |
| 2026-04-26 04:33 | 40.96308 | -124.32111 | 8681 ft | 234 kts | 223° |
| 2026-04-26 04:33 | 40.94805 | -124.32958 | 9227 ft | 242 kts | 188° |
| 2026-04-26 04:33 | 40.93132 | -124.32699 | 9772 ft | 245 kts | 166° |
| 2026-04-26 04:33 | 40.91506 | -124.32095 | 10250 ft | 247 kts | 164° |
| 2026-04-26 04:34 | 40.89843 | -124.31472 | 10738 ft | 248 kts | 165° |
| 2026-04-26 04:34 | 40.88174 | -124.30878 | 11229 ft | 249 kts | 166° |
| 2026-04-26 04:34 | 40.86484 | -124.30287 | 11687 ft | 252 kts | 166° |
| 2026-04-26 04:34 | 40.84785 | -124.29685 | 12146 ft | 254 kts | 166° |
| 2026-04-26 04:35 | 40.83074 | -124.29080 | 12597 ft | 255 kts | 166° |
| 2026-04-26 04:35 | 40.81345 | -124.28468 | 13036 ft | 257 kts | 166° |
| 2026-04-26 04:35 | 40.79633 | -124.27863 | 13458 ft | 259 kts | 166° |
| 2026-04-26 04:35 | 40.77881 | -124.27244 | 13865 ft | 261 kts | 167° |
| 2026-04-26 04:36 | 40.76123 | -124.26625 | 14211 ft | 263 kts | 167° |
| 2026-04-26 04:36 | 40.74342 | -124.25993 | 14541 ft | 266 kts | 166° |
| 2026-04-26 04:36 | 40.72538 | -124.25357 | 14848 ft | 270 kts | 167° |
| 2026-04-26 04:36 | 40.70723 | -124.24722 | 15209 ft | 271 kts | 167° |
| 2026-04-26 04:37 | 40.68897 | -124.24078 | 15538 ft | 273 kts | 167° |
| 2026-04-26 04:37 | 40.67072 | -124.23337 | 15860 ft | 276 kts | 157° |
| 2026-04-26 04:37 | 40.65413 | -124.22036 | 16169 ft | 279 kts | 148° |
| 2026-04-26 04:37 | 40.63768 | -124.20668 | 16479 ft | 281 kts | 148° |
| 2026-04-26 04:38 | 40.62108 | -124.19296 | 16798 ft | 283 kts | 148° |
| 2026-04-26 04:38 | 40.60436 | -124.17915 | 17093 ft | 285 kts | 148° |
| 2026-04-26 04:38 | 40.58756 | -124.16523 | 17387 ft | 286 kts | 148° |
| 2026-04-26 04:38 | 40.57065 | -124.15126 | 17675 ft | 288 kts | 148° |
| 2026-04-26 04:39 | 40.55361 | -124.13718 | 17982 ft | 290 kts | 148° |
| 2026-04-26 04:39 | 40.53653 | -124.12307 | 18257 ft | 291 kts | 149° |
| 2026-04-26 04:39 | 40.51931 | -124.10889 | 18504 ft | 293 kts | 149° |
| 2026-04-26 04:39 | 40.50226 | -124.09490 | 18762 ft | 293 kts | 149° |
| 2026-04-26 04:40 | 40.48495 | -124.08054 | 19012 ft | 295 kts | 149° |
| 2026-04-26 04:40 | 40.46757 | -124.06617 | 19268 ft | 296 kts | 149° |
| 2026-04-26 04:40 | 40.45008 | -124.05185 | 19505 ft | 297 kts | 149° |
| 2026-04-26 04:40 | 40.43253 | -124.03740 | 19748 ft | 298 kts | 149° |
| 2026-04-26 04:41 | 40.41496 | -124.02296 | 20007 ft | 299 kts | 149° |
| 2026-04-26 04:41 | 40.39728 | -124.00852 | 20249 ft | 299 kts | 150° |
| 2026-04-26 04:41 | 40.37963 | -123.99398 | 20503 ft | 300 kts | 149° |
| 2026-04-26 04:41 | 40.36197 | -123.97932 | 20786 ft | 302 kts | 149° |
| 2026-04-26 04:42 | 40.34391 | -123.96462 | 20904 ft | 311 kts | 150° |
| 2026-04-26 04:42 | 40.32516 | -123.94949 | 20908 ft | 322 kts | 149° |
| 2026-04-26 04:42 | 40.30613 | -123.93372 | 20908 ft | 331 kts | 149° |
| 2026-04-26 04:42 | 40.28630 | -123.91759 | 20909 ft | 339 kts | 149° |
| 2026-04-26 04:43 | 40.26614 | -123.90093 | 20912 ft | 346 kts | 149° |
| 2026-04-26 04:43 | 40.24561 | -123.88406 | 20902 ft | 351 kts | 149° |
| 2026-04-26 04:43 | 40.22465 | -123.86716 | 20908 ft | 355 kts | 150° |
| 2026-04-26 04:43 | 40.20355 | -123.85007 | 20904 ft | 359 kts | 149° |
| 2026-04-26 04:44 | 40.18237 | -123.83260 | 20909 ft | 362 kts | 149° |
| 2026-04-26 04:44 | 40.16091 | -123.81517 | 20899 ft | 363 kts | 150° |
| 2026-04-26 04:44 | 40.13941 | -123.79770 | 20900 ft | 365 kts | 149° |
| 2026-04-26 04:44 | 40.11788 | -123.77986 | 20895 ft | 367 kts | 149° |
| 2026-04-26 04:45 | 40.09618 | -123.76231 | 20875 ft | 368 kts | 150° |
| 2026-04-26 04:45 | 40.07430 | -123.74496 | 20882 ft | 368 kts | 150° |
| 2026-04-26 04:45 | 40.05253 | -123.72730 | 20881 ft | 369 kts | 149° |
| 2026-04-26 04:45 | 40.03080 | -123.70932 | 20878 ft | 369 kts | 149° |
| 2026-04-26 04:46 | 40.00903 | -123.69153 | 20883 ft | 369 kts | 149° |
| 2026-04-26 04:46 | 39.98704 | -123.67405 | 20870 ft | 370 kts | 150° |
| 2026-04-26 04:46 | 39.96515 | -123.65648 | 20875 ft | 370 kts | 149° |
| 2026-04-26 04:46 | 39.94364 | -123.63880 | 20881 ft | 370 kts | 149° |
| 2026-04-26 04:47 | 39.92179 | -123.62106 | 20880 ft | 370 kts | 149° |
| 2026-04-26 04:47 | 39.89984 | -123.60367 | 20880 ft | 370 kts | 150° |
| 2026-04-26 04:47 | 39.87792 | -123.58600 | 20878 ft | 370 kts | 148° |
| 2026-04-26 04:47 | 39.85647 | -123.56746 | 20867 ft | 371 kts | 147° |
| 2026-04-26 04:48 | 39.81279 | -123.53178 | 20873 ft | 370 kts | 150° |
| 2026-04-26 04:48 | 39.79084 | -123.51427 | 20874 ft | 370 kts | 149° |
| 2026-04-26 04:48 | 39.76914 | -123.49621 | 20873 ft | 370 kts | 148° |
| 2026-04-26 04:49 | 39.74743 | -123.47819 | 20877 ft | 370 kts | 149° |
| 2026-04-26 04:49 | 39.72565 | -123.46036 | 20871 ft | 370 kts | 149° |
| 2026-04-26 04:49 | 39.70384 | -123.44254 | 20869 ft | 370 kts | 149° |
| 2026-04-26 04:49 | 39.68195 | -123.42490 | 20873 ft | 370 kts | 149° |
| 2026-04-26 04:50 | 39.66013 | -123.40721 | 20874 ft | 370 kts | 149° |
| 2026-04-26 04:50 | 39.63839 | -123.38928 | 20872 ft | 370 kts | 149° |
| 2026-04-26 04:50 | 39.61661 | -123.37145 | 20867 ft | 370 kts | 149° |
| 2026-04-26 04:50 | 39.59479 | -123.35383 | 20870 ft | 370 kts | 149° |
| 2026-04-26 04:51 | 39.57297 | -123.33621 | 20870 ft | 370 kts | 149° |
| 2026-04-26 04:51 | 39.55120 | -123.31837 | 20871 ft | 370 kts | 149° |
| 2026-04-26 04:51 | 39.52936 | -123.30068 | 20868 ft | 370 kts | 149° |
| 2026-04-26 04:51 | 39.50754 | -123.28297 | 20862 ft | 370 kts | 149° |
| 2026-04-26 04:52 | 39.48572 | -123.26524 | 20865 ft | 370 kts | 149° |
| 2026-04-26 04:52 | 39.46392 | -123.24763 | 20860 ft | 370 kts | 149° |
| 2026-04-26 04:52 | 39.44205 | -123.23012 | 20864 ft | 370 kts | 149° |
| 2026-04-26 04:52 | 39.42058 | -123.21248 | 20859 ft | 370 kts | 148° |
| 2026-04-26 04:53 | 39.39883 | -123.19470 | 20863 ft | 370 kts | 149° |
| 2026-04-26 04:53 | 39.37688 | -123.17735 | 20860 ft | 370 kts | 149° |
| 2026-04-26 04:53 | 39.35504 | -123.15980 | 20871 ft | 370 kts | 148° |
| 2026-04-26 04:53 | 39.33329 | -123.14192 | 20883 ft | 370 kts | 148° |
| 2026-04-26 04:54 | 39.31148 | -123.12441 | 20879 ft | 369 kts | 149° |
| 2026-04-26 04:54 | 39.28959 | -123.10701 | 20881 ft | 369 kts | 149° |
| 2026-04-26 04:54 | 39.26782 | -123.08940 | 20880 ft | 369 kts | 148° |
| 2026-04-26 04:54 | 39.24604 | -123.07176 | 20885 ft | 369 kts | 149° |
| 2026-04-26 04:55 | 39.22418 | -123.05430 | 20882 ft | 369 kts | 149° |
| 2026-04-26 04:55 | 39.20235 | -123.03683 | 20882 ft | 369 kts | 149° |
| 2026-04-26 04:55 | 39.18055 | -123.01941 | 20879 ft | 369 kts | 148° |
| 2026-04-26 04:55 | 39.15877 | -123.00174 | 20870 ft | 369 kts | 148° |
| 2026-04-26 04:56 | 39.13680 | -122.98401 | 20513 ft | 378 kts | 149° |
| 2026-04-26 04:56 | 39.11431 | -122.96631 | 20025 ft | 387 kts | 149° |
| 2026-04-26 04:56 | 39.09125 | -122.94802 | 19505 ft | 391 kts | 148° |
| 2026-04-26 04:56 | 39.06821 | -122.92931 | 18987 ft | 392 kts | 148° |
| 2026-04-26 04:57 | 39.04506 | -122.91069 | 18465 ft | 392 kts | 148° |
| 2026-04-26 04:57 | 39.02180 | -122.89235 | 17921 ft | 391 kts | 148° |
| 2026-04-26 04:57 | 38.99870 | -122.87410 | 17392 ft | 388 kts | 148° |
| 2026-04-26 04:57 | 38.97589 | -122.85573 | 16922 ft | 384 kts | 148° |
| 2026-04-26 04:58 | 38.95354 | -122.83775 | 16458 ft | 376 kts | 148° |
| 2026-04-26 04:58 | 38.93137 | -122.82030 | 15965 ft | 370 kts | 148° |
| 2026-04-26 04:58 | 38.90953 | -122.80308 | 15481 ft | 366 kts | 148° |
| 2026-04-26 04:58 | 38.88803 | -122.78584 | 14998 ft | 362 kts | 148° |
| 2026-04-26 04:59 | 38.86673 | -122.76882 | 14526 ft | 359 kts | 148° |
| 2026-04-26 04:59 | 38.84557 | -122.75220 | 14059 ft | 356 kts | 148° |
| 2026-04-26 04:59 | 38.82459 | -122.73563 | 13585 ft | 352 kts | 148° |
| 2026-04-26 04:59 | 38.80401 | -122.71923 | 13097 ft | 344 kts | 148° |
| 2026-04-26 05:00 | 38.78414 | -122.70355 | 12656 ft | 336 kts | 149° |
| 2026-04-26 05:00 | 38.76430 | -122.68795 | 12224 ft | 331 kts | 148° |
| 2026-04-26 05:00 | 38.74485 | -122.67247 | 11782 ft | 327 kts | 148° |
| 2026-04-26 05:00 | 38.72575 | -122.65718 | 11358 ft | 318 kts | 148° |
| 2026-04-26 05:01 | 38.70723 | -122.64265 | 10949 ft | 307 kts | 149° |
| 2026-04-26 05:01 | 38.68928 | -122.62875 | 10548 ft | 297 kts | 149° |
| 2026-04-26 05:01 | 38.67191 | -122.61491 | 10162 ft | 291 kts | 148° |
| 2026-04-26 05:01 | 38.65480 | -122.60141 | 9780 ft | 286 kts | 149° |
| 2026-04-26 05:02 | 38.63794 | -122.58827 | 9383 ft | 282 kts | 148° |
| 2026-04-26 05:02 | 38.62143 | -122.57497 | 9011 ft | 278 kts | 149° |
| 2026-04-26 05:02 | 38.60509 | -122.56197 | 8647 ft | 275 kts | 149° |
| 2026-04-26 05:02 | 38.58876 | -122.54937 | 8287 ft | 273 kts | 149° |
| 2026-04-26 05:03 | 38.57273 | -122.53701 | 7932 ft | 272 kts | 149° |
| 2026-04-26 05:03 | 38.55674 | -122.52427 | 7575 ft | 270 kts | 148° |
| 2026-04-26 05:03 | 38.54079 | -122.51163 | 7220 ft | 269 kts | 149° |
| 2026-04-26 05:03 | 38.52494 | -122.49908 | 6863 ft | 264 kts | 148° |
| 2026-04-26 05:04 | 38.50990 | -122.48650 | 6530 ft | 253 kts | 150° |
| 2026-04-26 05:04 | 38.49507 | -122.47508 | 6184 ft | 245 kts | 145° |
| 2026-04-26 05:04 | 38.48518 | -122.45825 | 5974 ft | 235 kts | 108° |
| 2026-04-26 05:04 | 38.48341 | -122.43850 | 5969 ft | 216 kts | 86° |
| 2026-04-26 05:05 | 38.48419 | -122.42000 | 5966 ft | 202 kts | 85° |
| 2026-04-26 05:05 | 38.48473 | -122.40252 | 5969 ft | 194 kts | 86° |
| 2026-04-26 05:05 | 38.48510 | -122.38554 | 5967 ft | 189 kts | 86° |
| 2026-04-26 05:05 | 38.48482 | -122.36894 | 5971 ft | 185 kts | 101° |
| 2026-04-26 05:06 | 38.47868 | -122.35464 | 5859 ft | 189 kts | 134° |
| 2026-04-26 05:06 | 38.46766 | -122.34548 | 5589 ft | 192 kts | 163° |
| 2026-04-26 05:06 | 38.45467 | -122.34371 | 5309 ft | 186 kts | 184° |
| 2026-04-26 05:06 | 38.44184 | -122.34319 | 5045 ft | 183 kts | 181° |
| 2026-04-26 05:07 | 38.42925 | -122.34221 | 4780 ft | 180 kts | 181° |
| 2026-04-26 05:07 | 38.41688 | -122.34151 | 4515 ft | 176 kts | 181° |
| 2026-04-26 05:07 | 38.40499 | -122.34075 | 4264 ft | 172 kts | 181° |
| 2026-04-26 05:07 | 38.39347 | -122.33696 | 4015 ft | 175 kts | 155° |
| 2026-04-26 05:08 | 38.38313 | -122.32890 | 3766 ft | 173 kts | 155° |
| 2026-04-26 05:08 | 38.37270 | -122.32160 | 3518 ft | 170 kts | 157° |
| 2026-04-26 05:08 | 38.36242 | -122.31437 | 3274 ft | 168 kts | 156° |
| 2026-04-26 05:08 | 38.35221 | -122.30714 | 3022 ft | 167 kts | 156° |
| 2026-04-26 05:09 | 38.34213 | -122.29997 | 2786 ft | 165 kts | 156° |
| 2026-04-26 05:09 | 38.33216 | -122.29288 | 2548 ft | 163 kts | 156° |
| 2026-04-26 05:09 | 38.32228 | -122.28585 | 2308 ft | 162 kts | 156° |
| 2026-04-26 05:09 | 38.31283 | -122.27906 | 2076 ft | 146 kts | 156° |
| 2026-04-26 05:10 | 38.30440 | -122.27390 | 1936 ft | 127 kts | 171° |
| 2026-04-26 05:10 | 38.29555 | -122.27311 | 1745 ft | 128 kts | 188° |
| 2026-04-26 05:10 | 38.28663 | -122.27340 | 1537 ft | 129 kts | 185° |
| 2026-04-26 05:10 | 38.27754 | -122.27349 | 1323 ft | 129 kts | 185° |
| 2026-04-26 05:11 | 38.26899 | -122.27359 | 1114 ft | 119 kts | 186° |
| 2026-04-26 05:11 | 38.26087 | -122.27382 | 916 ft | 115 kts | 186° |
| 2026-04-26 05:11 | 38.25301 | -122.27386 | 742 ft | 112 kts | 186° |
| 2026-04-26 05:11 | 38.24529 | -122.27332 | 635 ft | 113 kts | 181° |
| 2026-04-26 05:12 | 38.23740 | -122.27322 | 416 ft | 113 kts | 189° |
| 2026-04-26 05:12 | 38.22992 | -122.27502 | 221 ft | 105 kts | 200° |
| 2026-04-26 05:12 | 38.22326 | -122.27799 | 71 ft | 101 kts | 204° |
| 2026-04-26 05:12 | 38.21734 | -122.28072 | 18 ft | 77 kts | 203° |
| 2026-04-26 05:13 | 38.21294 | -122.28290 | 15 ft | 60 kts | 201° |
| 2026-04-26 05:13 | 38.21044 | -122.28424 | 12 ft | 25 kts | 204° |
| 2026-04-26 05:13 | 38.20966 | -122.28395 | 11 ft | 12 kts | 79° |
| 2026-04-26 05:13 | 38.20986 | -122.28306 | 13 ft | 10 kts | 77° |
| 2026-04-26 05:14 | 38.21001 | -122.28223 | 15 ft | 10 kts | 77° |
| 2026-04-26 05:14 | 38.21019 | -122.28131 | 17 ft | 12 kts | 76° |
| 2026-04-26 05:14 | 38.21039 | -122.28021 | 17 ft | 14 kts | 77° |
| 2026-04-26 05:14 | 38.21062 | -122.27894 | 18 ft | 16 kts | 77° |
| 2026-04-26 05:15 | 38.21088 | -122.27754 | 18 ft | 17 kts | 76° |
| 2026-04-26 05:15 | 38.21106 | -122.27660 | 19 ft | 16 kts | 77° |
| 2026-04-26 05:15 | 38.21142 | -122.27467 | 21 ft | 17 kts | 77° |
| 2026-04-26 05:15 | 38.21168 | -122.27324 | 22 ft | 16 kts | 77° |
| 2026-04-26 05:16 | 38.21210 | -122.27236 | 23 ft | 11 kts | 342° |
| 2026-04-26 05:16 | 38.21258 | -122.27250 | 22 ft | 7 kts | 62° |
| 2026-04-26 05:16 | 38.21283 | -122.27179 | 22 ft | 11 kts | 65° |
| 2026-04-26 05:16 | 38.21295 | -122.27095 | 22 ft | 10 kts | 150° |
| 2026-04-26 05:17 | 38.21263 | -122.27092 | 23 ft | 2 kts | 244° |
| 2026-04-26 05:17 | 38.21262 | -122.27096 | 23 ft | 0 kts | 244° |